sensor_id;sensor_type;location;lat;lon;timestamp;P1;durP1;ratioP1;P2;durP2;ratioP2
70367;SDS011;57789;53.868;10.728;2022-10-31T00:00:56;43.43;;;24.70;;
70367;SDS011;57789;53.868;10.728;2022-10-31T00:03:22;40.10;;;23.47;;
70367;SDS011;57789;53.868;10.728;2022-10-31T00:05:48;47.63;;;24.13;;
70367;SDS011;57789;53.868;10.728;2022-10-31T00:08:15;45.90;;;23.70;;
70367;SDS011;57789;53.868;10.728;2022-10-31T00:10:42;39.13;;;23.10;;
70367;SDS011;57789;53.868;10.728;2022-10-31T00:13:09;36.60;;;23.20;;
70367;SDS011;57789;53.868;10.728;2022-10-31T00:15:39;51.80;;;23.67;;
70367;SDS011;57789;53.868;10.728;2022-10-31T00:18:06;36.40;;;20.23;;
70367;SDS011;57789;53.868;10.728;2022-10-31T00:20:33;37.50;;;21.73;;
70367;SDS011;57789;53.868;10.728;2022-10-31T00:22:59;43.30;;;22.30;;
70367;SDS011;57789;53.868;10.728;2022-10-31T00:25:26;32.97;;;20.83;;
70367;SDS011;57789;53.868;10.728;2022-10-31T00:27:53;42.90;;;21.60;;
70367;SDS011;57789;53.868;10.728;2022-10-31T00:30:19;34.30;;;20.40;;
70367;SDS011;57789;53.868;10.728;2022-10-31T00:32:44;40.93;;;19.33;;
70367;SDS011;57789;53.868;10.728;2022-10-31T00:35:10;37.33;;;20.93;;
70367;SDS011;57789;53.868;10.728;2022-10-31T00:37:36;34.40;;;20.83;;
70367;SDS011;57789;53.868;10.728;2022-10-31T00:40:01;40.50;;;22.53;;
70367;SDS011;57789;53.868;10.728;2022-10-31T00:42:27;35.57;;;20.83;;
70367;SDS011;57789;53.868;10.728;2022-10-31T00:44:53;34.87;;;22.70;;
70367;SDS011;57789;53.868;10.728;2022-10-31T00:47:20;34.37;;;21.33;;
70367;SDS011;57789;53.868;10.728;2022-10-31T00:49:46;33.70;;;20.03;;
70367;SDS011;57789;53.868;10.728;2022-10-31T00:52:14;30.93;;;18.93;;
70367;SDS011;57789;53.868;10.728;2022-10-31T00:54:39;29.50;;;19.60;;
70367;SDS011;57789;53.868;10.728;2022-10-31T00:57:05;30.67;;;20.00;;
70367;SDS011;57789;53.868;10.728;2022-10-31T00:59:30;32.90;;;19.87;;
70367;SDS011;57789;53.868;10.728;2022-10-31T01:01:56;28.53;;;17.03;;
70367;SDS011;57789;53.868;10.728;2022-10-31T01:04:22;28.20;;;18.17;;
70367;SDS011;57789;53.868;10.728;2022-10-31T01:06:47;33.60;;;17.30;;
70367;SDS011;57789;53.868;10.728;2022-10-31T01:09:13;31.77;;;17.93;;
70367;SDS011;57789;53.868;10.728;2022-10-31T01:11:39;29.40;;;17.70;;
70367;SDS011;57789;53.868;10.728;2022-10-31T01:14:04;33.03;;;17.10;;
70367;SDS011;57789;53.868;10.728;2022-10-31T01:16:30;33.97;;;18.50;;
70367;SDS011;57789;53.868;10.728;2022-10-31T01:18:56;26.43;;;16.30;;
70367;SDS011;57789;53.868;10.728;2022-10-31T01:21:23;24.60;;;16.20;;
70367;SDS011;57789;53.868;10.728;2022-10-31T01:23:51;30.93;;;16.40;;
70367;SDS011;57789;53.868;10.728;2022-10-31T01:26:20;21.07;;;14.20;;
70367;SDS011;57789;53.868;10.728;2022-10-31T01:29:02;30.13;;;17.23;;
70367;SDS011;57789;53.868;10.728;2022-10-31T01:31:31;24.83;;;16.63;;
70367;SDS011;57789;53.868;10.728;2022-10-31T01:33:58;25.77;;;17.30;;
70367;SDS011;57789;53.868;10.728;2022-10-31T01:36:27;35.73;;;16.57;;
70367;SDS011;57789;53.868;10.728;2022-10-31T01:38:56;30.07;;;17.03;;
70367;SDS011;57789;53.868;10.728;2022-10-31T01:41:24;31.67;;;16.60;;
70367;SDS011;57789;53.868;10.728;2022-10-31T01:43:55;25.67;;;16.90;;
70367;SDS011;57789;53.868;10.728;2022-10-31T01:46:30;26.30;;;15.67;;
70367;SDS011;57789;53.868;10.728;2022-10-31T01:49:08;24.47;;;16.33;;
70367;SDS011;57789;53.868;10.728;2022-10-31T01:51:39;25.87;;;15.90;;
70367;SDS011;57789;53.868;10.728;2022-10-31T01:54:09;38.57;;;15.33;;
70367;SDS011;57789;53.868;10.728;2022-10-31T01:56:38;28.17;;;17.90;;
70367;SDS011;57789;53.868;10.728;2022-10-31T01:59:06;30.30;;;17.23;;
70367;SDS011;57789;53.868;10.728;2022-10-31T02:01:35;32.50;;;16.70;;
70367;SDS011;57789;53.868;10.728;2022-10-31T02:04:02;27.43;;;18.20;;
70367;SDS011;57789;53.868;10.728;2022-10-31T02:06:38;35.13;;;16.60;;
70367;SDS011;57789;53.868;10.728;2022-10-31T02:09:10;23.10;;;15.77;;
70367;SDS011;57789;53.868;10.728;2022-10-31T02:11:37;21.97;;;13.60;;
70367;SDS011;57789;53.868;10.728;2022-10-31T02:14:03;28.90;;;15.47;;
70367;SDS011;57789;53.868;10.728;2022-10-31T02:16:29;22.87;;;14.30;;
70367;SDS011;57789;53.868;10.728;2022-10-31T02:18:55;32.50;;;16.80;;
70367;SDS011;57789;53.868;10.728;2022-10-31T02:21:23;27.47;;;15.03;;
70367;SDS011;57789;53.868;10.728;2022-10-31T02:30:10;30.63;;;15.07;;
70367;SDS011;57789;53.868;10.728;2022-10-31T02:32:51;18.73;;;13.80;;
70367;SDS011;57789;53.868;10.728;2022-10-31T02:36:10;18.50;;;13.27;;
70367;SDS011;57789;53.868;10.728;2022-10-31T02:38:24;22.67;;;14.37;;
70367;SDS011;57789;53.868;10.728;2022-10-31T02:46:34;22.80;;;13.77;;
70367;SDS011;57789;53.868;10.728;2022-10-31T02:51:51;21.03;;;13.87;;
70367;SDS011;57789;53.868;10.728;2022-10-31T02:54:18;27.33;;;14.63;;
70367;SDS011;57789;53.868;10.728;2022-10-31T02:56:48;22.13;;;13.57;;
70367;SDS011;57789;53.868;10.728;2022-10-31T02:59:16;25.23;;;15.07;;
70367;SDS011;57789;53.868;10.728;2022-10-31T03:01:45;31.97;;;15.10;;
70367;SDS011;57789;53.868;10.728;2022-10-31T03:07:36;24.27;;;12.93;;
70367;SDS011;57789;53.868;10.728;2022-10-31T03:12:36;25.03;;;13.93;;
70367;SDS011;57789;53.868;10.728;2022-10-31T03:18:16;21.73;;;14.40;;
70367;SDS011;57789;53.868;10.728;2022-10-31T03:20:50;23.03;;;14.13;;
70367;SDS011;57789;53.868;10.728;2022-10-31T03:23:21;25.77;;;16.07;;
70367;SDS011;57789;53.868;10.728;2022-10-31T03:25:48;38.80;;;19.07;;
70367;SDS011;57789;53.868;10.728;2022-10-31T03:28:16;22.83;;;16.70;;
70367;SDS011;57789;53.868;10.728;2022-10-31T03:30:47;24.53;;;15.60;;
70367;SDS011;57789;53.868;10.728;2022-10-31T03:33:18;46.30;;;21.90;;
70367;SDS011;57789;53.868;10.728;2022-10-31T03:35:51;66.17;;;23.80;;
70367;SDS011;57789;53.868;10.728;2022-10-31T03:38:19;41.93;;;20.90;;
70367;SDS011;57789;53.868;10.728;2022-10-31T03:40:46;72.90;;;23.30;;
70367;SDS011;57789;53.868;10.728;2022-10-31T03:43:14;52.23;;;24.77;;
70367;SDS011;57789;53.868;10.728;2022-10-31T03:45:44;99.03;;;26.83;;
70367;SDS011;57789;53.868;10.728;2022-10-31T03:48:12;45.03;;;24.60;;
70367;SDS011;57789;53.868;10.728;2022-10-31T03:50:42;52.37;;;24.60;;
70367;SDS011;57789;53.868;10.728;2022-10-31T03:53:19;57.90;;;23.70;;
70367;SDS011;57789;53.868;10.728;2022-10-31T03:58:39;91.40;;;27.60;;
70367;SDS011;57789;53.868;10.728;2022-10-31T04:01:11;108.53;;;26.73;;
70367;SDS011;57789;53.868;10.728;2022-10-31T04:03:40;83.07;;;29.43;;
70367;SDS011;57789;53.868;10.728;2022-10-31T04:06:07;50.93;;;25.23;;
70367;SDS011;57789;53.868;10.728;2022-10-31T04:08:38;42.87;;;24.67;;
70367;SDS011;57789;53.868;10.728;2022-10-31T04:11:13;169.63;;;31.37;;
70367;SDS011;57789;53.868;10.728;2022-10-31T04:13:41;92.03;;;29.03;;
70367;SDS011;57789;53.868;10.728;2022-10-31T04:16:09;213.93;;;32.90;;
70367;SDS011;57789;53.868;10.728;2022-10-31T04:18:35;75.30;;;30.70;;
70367;SDS011;57789;53.868;10.728;2022-10-31T04:21:05;116.90;;;31.77;;
70367;SDS011;57789;53.868;10.728;2022-10-31T04:23:32;84.70;;;28.40;;
70367;SDS011;57789;53.868;10.728;2022-10-31T04:25:59;105.87;;;30.70;;
70367;SDS011;57789;53.868;10.728;2022-10-31T04:28:24;100.33;;;31.07;;
70367;SDS011;57789;53.868;10.728;2022-10-31T04:30:50;113.37;;;33.07;;
70367;SDS011;57789;53.868;10.728;2022-10-31T04:33:16;104.70;;;32.80;;
70367;SDS011;57789;53.868;10.728;2022-10-31T04:35:42;108.97;;;32.60;;
70367;SDS011;57789;53.868;10.728;2022-10-31T04:38:08;89.50;;;31.93;;
70367;SDS011;57789;53.868;10.728;2022-10-31T04:40:34;123.80;;;33.60;;
70367;SDS011;57789;53.868;10.728;2022-10-31T04:42:59;90.70;;;33.00;;
70367;SDS011;57789;53.868;10.728;2022-10-31T04:45:25;61.53;;;32.07;;
70367;SDS011;57789;53.868;10.728;2022-10-31T04:47:50;73.97;;;32.67;;
70367;SDS011;57789;53.868;10.728;2022-10-31T04:50:16;112.30;;;32.40;;
70367;SDS011;57789;53.868;10.728;2022-10-31T04:52:42;83.20;;;30.47;;
70367;SDS011;57789;53.868;10.728;2022-10-31T04:55:09;72.47;;;32.80;;
70367;SDS011;57789;53.868;10.728;2022-10-31T04:57:42;109.33;;;34.70;;
70367;SDS011;57789;53.868;10.728;2022-10-31T05:00:09;85.63;;;33.07;;
70367;SDS011;57789;53.868;10.728;2022-10-31T05:02:42;86.97;;;31.40;;
70367;SDS011;57789;53.868;10.728;2022-10-31T05:05:08;68.33;;;31.37;;
70367;SDS011;57789;53.868;10.728;2022-10-31T05:07:37;60.57;;;29.40;;
70367;SDS011;57789;53.868;10.728;2022-10-31T05:10:04;106.80;;;33.13;;
70367;SDS011;57789;53.868;10.728;2022-10-31T05:12:30;100.43;;;32.20;;
70367;SDS011;57789;53.868;10.728;2022-10-31T05:14:56;77.90;;;31.30;;
70367;SDS011;57789;53.868;10.728;2022-10-31T05:17:21;94.43;;;33.80;;
70367;SDS011;57789;53.868;10.728;2022-10-31T05:19:47;55.90;;;30.87;;
70367;SDS011;57789;53.868;10.728;2022-10-31T05:22:13;59.90;;;31.30;;
70367;SDS011;57789;53.868;10.728;2022-10-31T05:24:39;56.50;;;31.30;;
70367;SDS011;57789;53.868;10.728;2022-10-31T05:27:04;59.47;;;28.60;;
70367;SDS011;57789;53.868;10.728;2022-10-31T05:29:30;75.27;;;29.30;;
70367;SDS011;57789;53.868;10.728;2022-10-31T05:31:58;64.00;;;32.30;;
70367;SDS011;57789;53.868;10.728;2022-10-31T05:34:24;66.73;;;33.00;;
70367;SDS011;57789;53.868;10.728;2022-10-31T05:36:50;68.67;;;29.37;;
70367;SDS011;57789;53.868;10.728;2022-10-31T05:39:15;54.30;;;27.90;;
70367;SDS011;57789;53.868;10.728;2022-10-31T05:41:41;68.90;;;30.60;;
70367;SDS011;57789;53.868;10.728;2022-10-31T05:44:06;58.20;;;29.70;;
70367;SDS011;57789;53.868;10.728;2022-10-31T05:46:32;55.70;;;31.07;;
70367;SDS011;57789;53.868;10.728;2022-10-31T05:48:58;62.53;;;32.63;;
70367;SDS011;57789;53.868;10.728;2022-10-31T05:51:23;58.83;;;31.53;;
70367;SDS011;57789;53.868;10.728;2022-10-31T05:53:49;50.97;;;30.00;;
70367;SDS011;57789;53.868;10.728;2022-10-31T05:56:14;57.73;;;31.23;;
70367;SDS011;57789;53.868;10.728;2022-10-31T05:58:40;71.13;;;33.30;;
70367;SDS011;57789;53.868;10.728;2022-10-31T06:01:05;53.60;;;29.83;;
70367;SDS011;57789;53.868;10.728;2022-10-31T06:03:31;58.33;;;32.53;;
70367;SDS011;57789;53.868;10.728;2022-10-31T06:05:57;59.27;;;31.17;;
70367;SDS011;57789;53.868;10.728;2022-10-31T06:08:22;55.70;;;31.67;;
70367;SDS011;57789;53.868;10.728;2022-10-31T06:10:48;52.57;;;30.33;;
70367;SDS011;57789;53.868;10.728;2022-10-31T06:13:13;59.50;;;30.53;;
70367;SDS011;57789;53.868;10.728;2022-10-31T06:15:40;70.50;;;30.43;;
70367;SDS011;57789;53.868;10.728;2022-10-31T06:18:06;64.60;;;32.10;;
70367;SDS011;57789;53.868;10.728;2022-10-31T06:20:33;62.87;;;31.00;;
70367;SDS011;57789;53.868;10.728;2022-10-31T06:22:59;54.83;;;29.90;;
70367;SDS011;57789;53.868;10.728;2022-10-31T06:25:25;48.77;;;29.30;;
70367;SDS011;57789;53.868;10.728;2022-10-31T06:27:51;48.50;;;27.20;;
70367;SDS011;57789;53.868;10.728;2022-10-31T06:30:17;50.80;;;28.77;;
70367;SDS011;57789;53.868;10.728;2022-10-31T06:32:43;51.23;;;29.10;;
70367;SDS011;57789;53.868;10.728;2022-10-31T06:35:08;54.97;;;26.97;;
70367;SDS011;57789;53.868;10.728;2022-10-31T06:37:35;52.47;;;25.70;;
70367;SDS011;57789;53.868;10.728;2022-10-31T06:40:00;53.43;;;28.67;;
70367;SDS011;57789;53.868;10.728;2022-10-31T06:42:26;49.10;;;26.50;;
70367;SDS011;57789;53.868;10.728;2022-10-31T06:44:52;43.67;;;26.23;;
70367;SDS011;57789;53.868;10.728;2022-10-31T06:47:17;51.43;;;27.97;;
70367;SDS011;57789;53.868;10.728;2022-10-31T06:49:43;72.53;;;36.57;;
70367;SDS011;57789;53.868;10.728;2022-10-31T06:52:08;71.27;;;31.10;;
70367;SDS011;57789;53.868;10.728;2022-10-31T06:54:34;44.53;;;26.60;;
70367;SDS011;57789;53.868;10.728;2022-10-31T06:56:59;51.30;;;26.33;;
70367;SDS011;57789;53.868;10.728;2022-10-31T06:59:25;51.07;;;27.30;;
70367;SDS011;57789;53.868;10.728;2022-10-31T07:01:51;52.13;;;28.57;;
70367;SDS011;57789;53.868;10.728;2022-10-31T07:04:16;61.77;;;30.10;;
70367;SDS011;57789;53.868;10.728;2022-10-31T07:06:42;55.53;;;30.00;;
70367;SDS011;57789;53.868;10.728;2022-10-31T07:09:08;58.17;;;31.70;;
70367;SDS011;57789;53.868;10.728;2022-10-31T07:11:33;47.67;;;30.40;;
70367;SDS011;57789;53.868;10.728;2022-10-31T07:13:59;64.60;;;28.83;;
70367;SDS011;57789;53.868;10.728;2022-10-31T07:16:25;53.60;;;28.77;;
70367;SDS011;57789;53.868;10.728;2022-10-31T07:18:51;50.43;;;25.53;;
70367;SDS011;57789;53.868;10.728;2022-10-31T07:21:17;48.47;;;26.13;;
70367;SDS011;57789;53.868;10.728;2022-10-31T07:23:42;50.23;;;28.60;;
70367;SDS011;57789;53.868;10.728;2022-10-31T07:26:09;50.17;;;26.30;;
70367;SDS011;57789;53.868;10.728;2022-10-31T07:28:35;43.07;;;27.13;;
70367;SDS011;57789;53.868;10.728;2022-10-31T07:31:00;50.73;;;28.37;;
70367;SDS011;57789;53.868;10.728;2022-10-31T07:33:26;52.03;;;24.77;;
70367;SDS011;57789;53.868;10.728;2022-10-31T07:35:52;48.03;;;28.00;;
70367;SDS011;57789;53.868;10.728;2022-10-31T07:38:18;52.23;;;25.50;;
70367;SDS011;57789;53.868;10.728;2022-10-31T07:40:43;48.03;;;27.67;;
70367;SDS011;57789;53.868;10.728;2022-10-31T07:43:14;40.73;;;23.93;;
70367;SDS011;57789;53.868;10.728;2022-10-31T07:45:39;41.43;;;25.07;;
70367;SDS011;57789;53.868;10.728;2022-10-31T07:48:05;59.37;;;28.07;;
70367;SDS011;57789;53.868;10.728;2022-10-31T07:50:31;60.23;;;31.27;;
70367;SDS011;57789;53.868;10.728;2022-10-31T07:53:04;55.90;;;25.73;;
70367;SDS011;57789;53.868;10.728;2022-10-31T07:55:34;55.20;;;32.13;;
70367;SDS011;57789;53.868;10.728;2022-10-31T08:00:29;52.67;;;25.93;;
70367;SDS011;57789;53.868;10.728;2022-10-31T08:03:00;48.03;;;25.40;;
70367;SDS011;57789;53.868;10.728;2022-10-31T08:05:27;64.80;;;26.87;;
70367;SDS011;57789;53.868;10.728;2022-10-31T08:07:54;54.03;;;24.33;;
70367;SDS011;57789;53.868;10.728;2022-10-31T08:10:20;74.30;;;40.73;;
70367;SDS011;57789;53.868;10.728;2022-10-31T08:12:46;65.20;;;23.80;;
70367;SDS011;57789;53.868;10.728;2022-10-31T08:15:12;62.90;;;24.43;;
70367;SDS011;57789;53.868;10.728;2022-10-31T08:17:37;52.47;;;24.80;;
70367;SDS011;57789;53.868;10.728;2022-10-31T08:20:04;50.03;;;25.33;;
70367;SDS011;57789;53.868;10.728;2022-10-31T08:22:30;46.87;;;23.77;;
70367;SDS011;57789;53.868;10.728;2022-10-31T08:24:56;62.13;;;34.43;;
70367;SDS011;57789;53.868;10.728;2022-10-31T08:27:21;51.90;;;24.80;;
70367;SDS011;57789;53.868;10.728;2022-10-31T08:29:47;46.83;;;22.13;;
70367;SDS011;57789;53.868;10.728;2022-10-31T08:32:13;50.60;;;24.40;;
70367;SDS011;57789;53.868;10.728;2022-10-31T08:34:39;51.00;;;24.03;;
70367;SDS011;57789;53.868;10.728;2022-10-31T08:37:04;41.97;;;22.10;;
70367;SDS011;57789;53.868;10.728;2022-10-31T08:39:30;35.97;;;19.47;;
70367;SDS011;57789;53.868;10.728;2022-10-31T08:41:55;38.90;;;20.00;;
70367;SDS011;57789;53.868;10.728;2022-10-31T08:44:21;39.30;;;18.93;;
70367;SDS011;57789;53.868;10.728;2022-10-31T08:46:47;50.43;;;19.50;;
70367;SDS011;57789;53.868;10.728;2022-10-31T08:49:12;37.00;;;20.60;;
70367;SDS011;57789;53.868;10.728;2022-10-31T08:51:38;39.33;;;21.10;;
70367;SDS011;57789;53.868;10.728;2022-10-31T08:54:03;38.17;;;20.00;;
70367;SDS011;57789;53.868;10.728;2022-10-31T08:56:29;38.53;;;20.20;;
70367;SDS011;57789;53.868;10.728;2022-10-31T08:58:55;40.93;;;20.37;;
70367;SDS011;57789;53.868;10.728;2022-10-31T09:01:21;36.50;;;18.93;;
70367;SDS011;57789;53.868;10.728;2022-10-31T09:03:46;33.27;;;18.47;;
70367;SDS011;57789;53.868;10.728;2022-10-31T09:06:12;33.63;;;17.00;;
70367;SDS011;57789;53.868;10.728;2022-10-31T09:08:38;39.27;;;23.63;;
70367;SDS011;57789;53.868;10.728;2022-10-31T09:11:04;42.93;;;21.03;;
70367;SDS011;57789;53.868;10.728;2022-10-31T09:13:31;31.80;;;16.40;;
70367;SDS011;57789;53.868;10.728;2022-10-31T09:15:57;29.73;;;16.47;;
70367;SDS011;57789;53.868;10.728;2022-10-31T09:18:25;44.63;;;25.20;;
70367;SDS011;57789;53.868;10.728;2022-10-31T09:20:56;32.80;;;14.97;;
70367;SDS011;57789;53.868;10.728;2022-10-31T09:23:23;31.53;;;17.23;;
70367;SDS011;57789;53.868;10.728;2022-10-31T09:25:50;30.93;;;15.30;;
70367;SDS011;57789;53.868;10.728;2022-10-31T09:28:21;33.43;;;15.20;;
70367;SDS011;57789;53.868;10.728;2022-10-31T09:30:49;23.27;;;14.20;;
70367;SDS011;57789;53.868;10.728;2022-10-31T09:33:16;30.10;;;15.90;;
70367;SDS011;57789;53.868;10.728;2022-10-31T09:35:42;26.37;;;15.20;;
70367;SDS011;57789;53.868;10.728;2022-10-31T09:38:11;26.40;;;15.43;;
70367;SDS011;57789;53.868;10.728;2022-10-31T09:46:02;24.07;;;14.77;;
70367;SDS011;57789;53.868;10.728;2022-10-31T09:51:34;25.13;;;15.37;;
70367;SDS011;57789;53.868;10.728;2022-10-31T09:56:35;24.10;;;15.67;;
70367;SDS011;57789;53.868;10.728;2022-10-31T09:59:02;27.43;;;14.10;;
70367;SDS011;57789;53.868;10.728;2022-10-31T10:01:45;25.93;;;16.80;;
70367;SDS011;57789;53.868;10.728;2022-10-31T10:07:13;25.13;;;13.93;;
70367;SDS011;57789;53.868;10.728;2022-10-31T10:09:41;21.43;;;13.33;;
70367;SDS011;57789;53.868;10.728;2022-10-31T10:17:38;23.27;;;12.30;;
70367;SDS011;57789;53.868;10.728;2022-10-31T10:23:22;23.90;;;13.80;;
70367;SDS011;57789;53.868;10.728;2022-10-31T10:26:21;28.10;;;18.67;;
70367;SDS011;57789;53.868;10.728;2022-10-31T10:28:49;31.80;;;15.90;;
70367;SDS011;57789;53.868;10.728;2022-10-31T10:31:23;34.13;;;17.87;;
70367;SDS011;57789;53.868;10.728;2022-10-31T10:36:46;20.93;;;12.67;;
70367;SDS011;57789;53.868;10.728;2022-10-31T10:39:40;20.27;;;12.70;;
70367;SDS011;57789;53.868;10.728;2022-10-31T10:42:12;20.57;;;12.60;;
70367;SDS011;57789;53.868;10.728;2022-10-31T10:44:58;21.20;;;12.97;;
70367;SDS011;57789;53.868;10.728;2022-10-31T10:47:44;27.70;;;17.63;;
70367;SDS011;57789;53.868;10.728;2022-10-31T10:50:31;23.50;;;13.60;;
70367;SDS011;57789;53.868;10.728;2022-10-31T10:53:14;20.53;;;12.80;;
70367;SDS011;57789;53.868;10.728;2022-10-31T10:56:18;15.67;;;10.70;;
70367;SDS011;57789;53.868;10.728;2022-10-31T10:58:55;18.60;;;11.50;;
70367;SDS011;57789;53.868;10.728;2022-10-31T11:01:22;21.43;;;14.77;;
70367;SDS011;57789;53.868;10.728;2022-10-31T11:03:48;24.33;;;14.03;;
70367;SDS011;57789;53.868;10.728;2022-10-31T11:06:32;29.13;;;17.70;;
70367;SDS011;57789;53.868;10.728;2022-10-31T11:08:58;21.50;;;13.53;;
70367;SDS011;57789;53.868;10.728;2022-10-31T11:11:34;22.43;;;12.83;;
70367;SDS011;57789;53.868;10.728;2022-10-31T11:14:00;18.03;;;13.00;;
70367;SDS011;57789;53.868;10.728;2022-10-31T11:16:33;31.27;;;20.03;;
70367;SDS011;57789;53.868;10.728;2022-10-31T11:19:06;21.37;;;12.40;;
70367;SDS011;57789;53.868;10.728;2022-10-31T11:21:50;20.87;;;13.83;;
70367;SDS011;57789;53.868;10.728;2022-10-31T11:24:19;25.30;;;15.33;;
70367;SDS011;57789;53.868;10.728;2022-10-31T11:26:50;38.73;;;22.93;;
70367;SDS011;57789;53.868;10.728;2022-10-31T11:29:25;22.43;;;11.33;;
70367;SDS011;57789;53.868;10.728;2022-10-31T11:31:52;19.17;;;12.20;;
70367;SDS011;57789;53.868;10.728;2022-10-31T11:34:30;26.77;;;15.60;;
70367;SDS011;57789;53.868;10.728;2022-10-31T11:37:03;21.20;;;11.53;;
70367;SDS011;57789;53.868;10.728;2022-10-31T11:39:42;17.73;;;11.47;;
70367;SDS011;57789;53.868;10.728;2022-10-31T11:42:10;25.13;;;12.40;;
70367;SDS011;57789;53.868;10.728;2022-10-31T11:44:40;28.67;;;18.03;;
70367;SDS011;57789;53.868;10.728;2022-10-31T11:47:12;23.90;;;13.63;;
70367;SDS011;57789;53.868;10.728;2022-10-31T11:49:41;16.43;;;11.23;;
70367;SDS011;57789;53.868;10.728;2022-10-31T11:54:57;22.30;;;13.07;;
70367;SDS011;57789;53.868;10.728;2022-10-31T11:59:54;21.43;;;14.20;;
70367;SDS011;57789;53.868;10.728;2022-10-31T12:02:24;23.20;;;11.53;;
70367;SDS011;57789;53.868;10.728;2022-10-31T12:04:52;21.50;;;12.07;;
70367;SDS011;57789;53.868;10.728;2022-10-31T12:07:42;22.00;;;12.90;;
70367;SDS011;57789;53.868;10.728;2022-10-31T12:10:11;86.10;;;49.90;;
70367;SDS011;57789;53.868;10.728;2022-10-31T12:12:50;27.27;;;20.10;;
70367;SDS011;57789;53.868;10.728;2022-10-31T12:29:42;23.90;;;13.10;;
70367;SDS011;57789;53.868;10.728;2022-10-31T12:43:20;25.53;;;14.20;;
70367;SDS011;57789;53.868;10.728;2022-10-31T12:45:58;20.03;;;12.10;;
70367;SDS011;57789;53.868;10.728;2022-10-31T13:02:10;19.20;;;10.57;;
70367;SDS011;57789;53.868;10.728;2022-10-31T13:04:48;13.27;;;8.30;;
70367;SDS011;57789;53.868;10.728;2022-10-31T13:07:37;18.73;;;9.70;;
70367;SDS011;57789;53.868;10.728;2022-10-31T13:10:15;15.77;;;9.63;;
70367;SDS011;57789;53.868;10.728;2022-10-31T13:12:44;19.07;;;12.40;;
70367;SDS011;57789;53.868;10.728;2022-10-31T13:15:15;25.17;;;16.33;;
70367;SDS011;57789;53.868;10.728;2022-10-31T13:18:06;13.60;;;9.53;;
70367;SDS011;57789;53.868;10.728;2022-10-31T13:20:39;26.90;;;14.07;;
70367;SDS011;57789;53.868;10.728;2022-10-31T13:23:12;23.67;;;13.40;;
70367;SDS011;57789;53.868;10.728;2022-10-31T13:26:02;18.50;;;9.40;;
70367;SDS011;57789;53.868;10.728;2022-10-31T13:28:47;30.43;;;16.63;;
70367;SDS011;57789;53.868;10.728;2022-10-31T13:31:13;24.40;;;15.90;;
70367;SDS011;57789;53.868;10.728;2022-10-31T13:33:41;13.30;;;9.10;;
70367;SDS011;57789;53.868;10.728;2022-10-31T13:41:53;13.50;;;8.70;;
70367;SDS011;57789;53.868;10.728;2022-10-31T13:44:29;19.67;;;10.67;;
70367;SDS011;57789;53.868;10.728;2022-10-31T13:47:00;13.63;;;7.23;;
70367;SDS011;57789;53.868;10.728;2022-10-31T13:54:49;18.07;;;8.17;;
70367;SDS011;57789;53.868;10.728;2022-10-31T14:00:21;13.57;;;7.60;;
70367;SDS011;57789;53.868;10.728;2022-10-31T14:02:49;15.67;;;10.10;;
70367;SDS011;57789;53.868;10.728;2022-10-31T14:08:01;16.30;;;8.13;;
70367;SDS011;57789;53.868;10.728;2022-10-31T14:10:31;19.17;;;8.90;;
70367;SDS011;57789;53.868;10.728;2022-10-31T14:13:04;16.17;;;11.00;;
70367;SDS011;57789;53.868;10.728;2022-10-31T14:16:20;16.67;;;8.23;;
70367;SDS011;57789;53.868;10.728;2022-10-31T14:18:47;17.70;;;10.40;;
70367;SDS011;57789;53.868;10.728;2022-10-31T14:21:26;20.67;;;8.73;;
70367;SDS011;57789;53.868;10.728;2022-10-31T14:24:01;13.17;;;7.90;;
70367;SDS011;57789;53.868;10.728;2022-10-31T14:26:59;16.10;;;8.53;;
70367;SDS011;57789;53.868;10.728;2022-10-31T14:29:44;11.37;;;7.20;;
70367;SDS011;57789;53.868;10.728;2022-10-31T14:39:57;84.10;;;45.60;;
70367;SDS011;57789;53.868;10.728;2022-10-31T14:53:17;51.77;;;32.40;;
70367;SDS011;57789;53.868;10.728;2022-10-31T14:58:52;42.93;;;26.63;;
70367;SDS011;57789;53.868;10.728;2022-10-31T15:04:17;24.63;;;15.43;;
70367;SDS011;57789;53.868;10.728;2022-10-31T15:06:54;12.70;;;6.93;;
70367;SDS011;57789;53.868;10.728;2022-10-31T15:09:37;37.20;;;21.77;;
70367;SDS011;57789;53.868;10.728;2022-10-31T15:14:51;17.00;;;11.63;;
70367;SDS011;57789;53.868;10.728;2022-10-31T15:17:17;16.90;;;9.27;;
70367;SDS011;57789;53.868;10.728;2022-10-31T15:19:43;52.73;;;31.57;;
70367;SDS011;57789;53.868;10.728;2022-10-31T15:22:10;32.70;;;20.57;;
70367;SDS011;57789;53.868;10.728;2022-10-31T15:24:40;71.33;;;37.00;;
70367;SDS011;57789;53.868;10.728;2022-10-31T15:27:10;35.57;;;18.40;;
70367;SDS011;57789;53.868;10.728;2022-10-31T15:29:47;13.27;;;8.30;;
70367;SDS011;57789;53.868;10.728;2022-10-31T15:32:21;18.73;;;9.70;;
70367;SDS011;57789;53.868;10.728;2022-10-31T15:34:48;38.63;;;23.80;;
70367;SDS011;57789;53.868;10.728;2022-10-31T15:37:17;14.83;;;8.30;;
70367;SDS011;57789;53.868;10.728;2022-10-31T15:39:45;11.03;;;7.60;;
70367;SDS011;57789;53.868;10.728;2022-10-31T15:42:32;11.37;;;7.83;;
70367;SDS011;57789;53.868;10.728;2022-10-31T15:45:00;33.23;;;20.30;;
70367;SDS011;57789;53.868;10.728;2022-10-31T15:47:45;15.97;;;10.07;;
70367;SDS011;57789;53.868;10.728;2022-10-31T15:52:52;20.73;;;12.70;;
70367;SDS011;57789;53.868;10.728;2022-10-31T15:55:19;27.73;;;14.73;;
70367;SDS011;57789;53.868;10.728;2022-10-31T16:00:42;26.63;;;10.80;;
70367;SDS011;57789;53.868;10.728;2022-10-31T16:05:47;14.63;;;7.80;;
70367;SDS011;57789;53.868;10.728;2022-10-31T16:08:49;12.20;;;5.90;;
70367;SDS011;57789;53.868;10.728;2022-10-31T16:11:23;11.83;;;6.30;;
70367;SDS011;57789;53.868;10.728;2022-10-31T16:14:15;14.37;;;5.80;;
70367;SDS011;57789;53.868;10.728;2022-10-31T16:16:49;15.70;;;9.23;;
70367;SDS011;57789;53.868;10.728;2022-10-31T16:19:19;16.10;;;8.20;;
70367;SDS011;57789;53.868;10.728;2022-10-31T16:24:48;23.80;;;15.10;;
70367;SDS011;57789;53.868;10.728;2022-10-31T16:27:19;33.87;;;19.10;;
70367;SDS011;57789;53.868;10.728;2022-10-31T16:29:50;50.37;;;24.87;;
70367;SDS011;57789;53.868;10.728;2022-10-31T16:32:33;34.07;;;18.67;;
70367;SDS011;57789;53.868;10.728;2022-10-31T16:35:01;46.50;;;25.60;;
70367;SDS011;57789;53.868;10.728;2022-10-31T16:37:27;12.80;;;7.53;;
70367;SDS011;57789;53.868;10.728;2022-10-31T16:39:53;33.97;;;17.13;;
70367;SDS011;57789;53.868;10.728;2022-10-31T16:42:18;16.43;;;6.87;;
70367;SDS011;57789;53.868;10.728;2022-10-31T16:44:44;24.30;;;12.43;;
70367;SDS011;57789;53.868;10.728;2022-10-31T16:47:13;14.57;;;8.20;;
70367;SDS011;57789;53.868;10.728;2022-10-31T16:49:41;16.33;;;7.60;;
70367;SDS011;57789;53.868;10.728;2022-10-31T16:52:07;28.03;;;18.10;;
70367;SDS011;57789;53.868;10.728;2022-10-31T16:54:33;11.33;;;6.50;;
70367;SDS011;57789;53.868;10.728;2022-10-31T16:56:59;18.20;;;9.50;;